createdAt,value
2019-03-06T00:02:18.094Z,90.09
2019-03-06T00:04:48.209Z,90.28
2019-03-06T00:07:18.643Z,90.33
2019-03-06T00:09:48.705Z,90.54
2019-03-06T00:12:18.689Z,90.52
2019-03-06T00:14:48.531Z,89.95
2019-03-06T00:17:18.132Z,89.75
2019-03-06T00:19:47.644Z,90.19
2019-03-06T00:22:16.429Z,90.14
2019-03-06T00:24:45.328Z,90.12
2019-03-06T00:27:14.241Z,90.39
2019-03-06T00:29:45.563Z,90.17
2019-03-06T00:32:14.441Z,90.24
2019-03-06T00:34:44.184Z,89.95
2019-03-06T00:37:13.522Z,89.96
2019-03-06T00:40:05.031Z,89.91
2019-03-06T00:42:36.584Z,90.16
2019-03-06T00:45:08.290Z,90.85
2019-03-06T00:47:37.589Z,90.83
2019-03-06T00:50:07.055Z,90.92
2019-03-06T00:52:36.351Z,90.97
2019-03-06T00:55:05.861Z,91.26
2019-03-06T00:57:35.235Z,91.23
2019-03-06T01:00:05.251Z,91.08
2019-03-06T01:02:34.033Z,91.29
2019-03-06T01:05:03.213Z,90.99
2019-03-06T01:07:32.374Z,90.90
2019-03-06T01:10:01.179Z,90.46
2019-03-06T01:12:30.414Z,91.11
2019-03-06T01:14:59.536Z,91.21
2019-03-06T01:17:28.389Z,91.11
2019-03-06T01:19:57.618Z,91.19
2019-03-06T01:22:27.390Z,90.91
2019-03-06T01:24:56.724Z,90.66
2019-03-06T01:27:25.927Z,90.61
2019-03-06T01:29:54.758Z,90.72
2019-03-06T01:32:23.715Z,91.11
2019-03-06T01:35:10.827Z,90.88
2019-03-06T01:37:55.048Z,91.22
2019-03-06T01:40:35.703Z,90.88
2019-03-06T01:43:11.127Z,91.16
2019-03-06T01:45:40.031Z,91.06
2019-03-06T01:48:08.886Z,90.95
2019-03-06T01:50:38.047Z,91.11
2019-03-06T01:53:07.184Z,91.15
2019-03-06T01:55:36.371Z,91.03
2019-03-06T01:58:05.398Z,91.32
2019-03-06T02:00:34.761Z,91.09
2019-03-06T02:03:03.697Z,91.19
2019-03-06T02:05:32.582Z,90.83
2019-03-06T02:08:01.485Z,91.07
2019-03-06T02:10:31.026Z,91.29
2019-03-06T02:13:00.210Z,90.93
2019-03-06T02:15:29.031Z,91.03
2019-03-06T02:17:57.818Z,90.95
2019-03-06T02:20:26.795Z,90.88
2019-03-06T02:22:55.688Z,91.01
2019-03-06T02:25:24.624Z,91.07
2019-03-06T02:27:54.217Z,91.35
2019-03-06T02:30:23.537Z,91.35
2019-03-06T02:32:52.389Z,91.34
2019-03-06T02:35:21.522Z,91.08
2019-03-06T02:37:50.413Z,91.05
2019-03-06T02:40:19.441Z,90.92
2019-03-06T02:42:48.222Z,91.42
2019-03-06T02:45:17.305Z,91.13
2019-03-06T02:47:46.624Z,91.10
2019-03-06T02:50:16.137Z,90.92
2019-03-06T02:52:45.064Z,90.78
2019-03-06T02:55:14.240Z,90.51
2019-03-06T02:57:48.680Z,90.41
2019-03-06T03:00:38.973Z,90.68
2019-03-06T03:03:40.987Z,90.94
2019-03-06T03:06:15.946Z,90.72
2019-03-06T03:08:44.728Z,89.78
2019-03-06T03:11:13.514Z,88.79
2019-03-06T03:13:42.416Z,88.23
2019-03-06T03:16:11.198Z,88.00
2019-03-06T03:18:40.277Z,87.70
2019-03-06T03:21:09.186Z,87.05
2019-03-06T03:23:38.008Z,86.26
2019-03-06T03:26:06.782Z,86.37
2019-03-06T03:28:35.628Z,85.21
2019-03-06T03:31:04.566Z,85.23
2019-03-06T03:33:33.369Z,85.14
2019-03-06T03:36:02.165Z,84.83
2019-03-06T03:38:30.955Z,85.77
2019-03-06T03:40:59.744Z,85.21
2019-03-06T03:43:28.568Z,85.36
2019-03-06T03:45:57.348Z,84.56
2019-03-06T03:48:26.150Z,84.28
2019-03-06T03:50:55.354Z,84.49
2019-03-06T03:53:24.141Z,84.45
2019-03-06T03:55:52.928Z,83.53
2019-03-06T03:58:22.209Z,83.55
2019-03-06T04:00:51.361Z,83.94
2019-03-06T04:03:20.259Z,83.94
2019-03-06T04:05:49.230Z,84.05
2019-03-06T04:08:18.073Z,83.49
2019-03-06T04:10:46.863Z,83.28
2019-03-06T04:13:15.662Z,83.44
2019-03-06T04:15:45.218Z,83.36
2019-03-06T04:18:13.997Z,83.04
2019-03-06T04:20:42.829Z,83.23
2019-03-06T04:23:12.556Z,83.14
2019-03-06T04:25:42.531Z,82.88
2019-03-06T04:28:12.136Z,82.49
2019-03-06T04:30:42.093Z,82.95
2019-03-06T04:33:11.971Z,82.83
2019-03-06T04:35:41.619Z,82.39
2019-03-06T04:38:11.360Z,82.44
2019-03-06T04:40:40.945Z,82.72
2019-03-06T04:43:09.751Z,82.96
2019-03-06T04:45:38.574Z,83.04
2019-03-06T04:48:07.777Z,83.71
2019-03-06T04:50:36.976Z,83.68
2019-03-06T04:53:06.937Z,84.05
2019-03-06T04:55:36.723Z,84.23
2019-03-06T04:58:06.546Z,84.36
2019-03-06T05:00:36.057Z,84.30
2019-03-06T05:03:05.798Z,84.49
2019-03-06T05:05:34.991Z,84.75
2019-03-06T05:08:05.714Z,85.15
2019-03-06T05:10:35.925Z,85.04
2019-03-06T05:13:05.629Z,85.08
2019-03-06T05:15:35.505Z,85.31
2019-03-06T05:18:19.520Z,85.59
2019-03-06T05:20:49.128Z,85.82
2019-03-06T05:23:18.392Z,85.86
2019-03-06T05:25:52.253Z,85.63
2019-03-06T05:28:30.237Z,85.98
2019-03-06T05:30:59.093Z,85.89
2019-03-06T05:33:28.806Z,85.74
2019-03-06T05:36:29.873Z,85.81
2019-03-06T05:39:08.834Z,86.07
2019-03-06T05:41:38.001Z,85.41
2019-03-06T05:44:07.265Z,85.29
2019-03-06T05:46:38.235Z,85.54
2019-03-06T05:49:07.262Z,85.42
2019-03-06T05:51:36.848Z,85.22
2019-03-06T05:54:06.477Z,85.75
2019-03-06T05:56:36.839Z,85.52
2019-03-06T05:59:05.881Z,85.47
2019-03-06T06:01:35.584Z,85.55
2019-03-06T06:04:05.251Z,85.71
2019-03-06T06:06:34.065Z,84.77
2019-03-06T06:09:04.592Z,84.08
2019-03-06T06:11:33.396Z,84.42
2019-03-06T06:14:02.219Z,84.41
2019-03-06T06:16:31.384Z,84.51
2019-03-06T06:19:01.782Z,84.31
2019-03-06T06:21:49.127Z,84.05
2019-03-06T06:24:22.285Z,84.01
2019-03-06T06:26:51.905Z,83.89
2019-03-06T06:29:21.853Z,83.80
2019-03-06T06:31:51.583Z,83.85
2019-03-06T06:34:21.142Z,83.58
2019-03-06T06:36:51.087Z,83.45
2019-03-06T06:39:21.116Z,83.15
2019-03-06T06:41:50.993Z,82.94
2019-03-06T06:44:20.192Z,82.81
2019-03-06T06:46:49.741Z,82.66
2019-03-06T06:49:19.728Z,82.61
2019-03-06T06:52:11.479Z,82.33
2019-03-06T06:54:52.511Z,82.46
2019-03-06T06:58:08.093Z,81.89
2019-03-06T07:01:12.987Z,82.46
2019-03-06T07:04:34.322Z,81.92
2019-03-06T07:07:22.528Z,82.15
2019-03-06T07:10:16.393Z,81.49
2019-03-06T07:13:17.145Z,81.04
2019-03-06T07:16:15.125Z,81.48
2019-03-06T07:19:15.678Z,80.62
2019-03-06T07:22:03.219Z,80.68
2019-03-06T07:24:57.742Z,80.41
2019-03-06T07:27:45.251Z,80.09
2019-03-06T07:30:24.515Z,79.67
2019-03-06T07:33:00.374Z,79.50
2019-03-06T07:36:05.028Z,79.35
2019-03-06T07:38:34.578Z,79.17
2019-03-06T07:41:22.001Z,78.96
2019-03-06T07:44:04.776Z,79.06
2019-03-06T07:46:44.907Z,78.54
2019-03-06T07:49:20.178Z,78.30
2019-03-06T07:52:07.669Z,78.15
2019-03-06T07:54:46.500Z,77.79
2019-03-06T07:57:33.188Z,77.47
2019-03-06T08:00:02.418Z,77.23
2019-03-06T08:02:41.437Z,76.81
2019-03-06T08:05:10.630Z,76.82
2019-03-06T08:07:39.484Z,76.67
2019-03-06T08:10:13.242Z,76.14
2019-03-06T08:12:52.061Z,76.09
2019-03-06T08:15:33.781Z,75.44
2019-03-06T08:18:31.246Z,75.51
2019-03-06T08:21:22.535Z,75.02
2019-03-06T08:23:58.491Z,74.81
2019-03-06T08:26:27.316Z,74.53
2019-03-06T08:28:56.331Z,73.89
2019-03-06T08:31:34.016Z,73.68
2019-03-06T08:34:03.056Z,73.15
2019-03-06T08:36:31.835Z,73.12
2019-03-06T08:39:00.688Z,72.17
2019-03-06T08:41:29.567Z,71.63
2019-03-06T08:43:58.427Z,71.76
2019-03-06T08:46:49.580Z,71.46
2019-03-06T08:49:43.649Z,71.98
2019-03-06T08:52:30.587Z,70.84
2019-03-06T08:55:05.964Z,70.57
2019-03-06T08:57:54.645Z,69.75
2019-03-06T09:00:36.309Z,69.28
2019-03-06T09:03:32.315Z,68.02
2019-03-06T09:06:15.988Z,68.49
2019-03-06T09:09:19.077Z,68.06
2019-03-06T09:12:06.029Z,67.24
2019-03-06T09:14:49.213Z,65.77
2019-03-06T09:17:35.540Z,65.11
2019-03-06T09:20:36.015Z,64.66
2019-03-06T09:23:23.238Z,64.24
2019-03-06T09:26:04.162Z,64.79
2019-03-06T09:28:41.937Z,64.20
2019-03-06T09:31:28.071Z,63.09
2019-03-06T09:34:24.798Z,63.70
2019-03-06T09:37:17.049Z,62.06
2019-03-06T09:40:03.570Z,64.20
2019-03-06T09:42:44.744Z,63.85
2019-03-06T09:45:21.976Z,63.81
2019-03-06T09:48:18.875Z,63.18
2019-03-06T09:51:06.769Z,61.31
2019-03-06T09:54:13.521Z,61.12
2019-03-06T09:57:20.140Z,60.46
2019-03-06T10:00:06.958Z,60.48
2019-03-06T10:02:51.537Z,59.61
2019-03-06T10:05:46.086Z,59.08
2019-03-06T10:08:39.983Z,58.62
2019-03-06T10:11:26.207Z,57.15
2019-03-06T10:14:06.929Z,56.52
2019-03-06T10:16:48.998Z,57.23
2019-03-06T10:19:23.556Z,56.30
2019-03-06T10:21:52.720Z,54.72
2019-03-06T10:24:21.625Z,55.51
2019-03-06T10:26:50.436Z,54.37
2019-03-06T10:29:19.684Z,54.86
2019-03-06T10:31:49.321Z,55.39
2019-03-06T10:34:18.238Z,54.39
2019-03-06T10:36:47.127Z,53.22
2019-03-06T10:39:16.723Z,52.91
2019-03-06T10:41:45.613Z,52.24
2019-03-06T10:44:14.881Z,51.97
2019-03-06T10:46:44.437Z,50.23
2019-03-06T10:49:14.209Z,50.63
2019-03-06T10:51:42.988Z,52.00
2019-03-06T10:54:14.984Z,49.70
2019-03-06T10:56:44.260Z,52.78
2019-03-06T10:59:14.755Z,51.85
2019-03-06T11:01:44.339Z,53.06
2019-03-06T11:04:31.619Z,53.93
2019-03-06T11:07:01.237Z,51.20
2019-03-06T11:09:30.696Z,51.26
2019-03-06T11:11:59.988Z,51.56
2019-03-06T11:14:29.402Z,51.95
2019-03-06T11:16:58.263Z,51.07
2019-03-06T11:19:27.210Z,49.11
2019-03-06T11:21:56.697Z,48.45
2019-03-06T11:24:25.971Z,49.27
2019-03-06T11:26:55.218Z,48.54
2019-03-06T11:29:24.273Z,47.65
2019-03-06T11:31:53.197Z,47.54
2019-03-06T11:34:22.459Z,48.17
2019-03-06T11:36:51.995Z,47.91
2019-03-06T11:39:21.625Z,47.00
2019-03-06T11:41:52.617Z,46.52
2019-03-06T11:44:21.562Z,45.43
2019-03-06T11:46:50.813Z,46.12
2019-03-06T11:49:20.255Z,45.97
2019-03-06T11:51:49.302Z,45.03
2019-03-06T11:54:18.217Z,44.14
2019-03-06T11:56:47.358Z,45.15
2019-03-06T11:59:16.481Z,43.57
2019-03-06T12:01:48.221Z,42.92
2019-03-06T12:04:16.605Z,42.93
2019-03-06T12:06:46.528Z,41.71
2019-03-06T12:09:27.393Z,41.38
2019-03-06T12:11:56.633Z,43.86
2019-03-06T12:14:25.660Z,43.71
2019-03-06T12:16:54.975Z,44.05
2019-03-06T12:19:23.918Z,44.76
2019-03-06T12:21:52.895Z,43.71
2019-03-06T12:24:21.775Z,45.60
2019-03-06T12:26:50.968Z,45.83
2019-03-06T12:29:19.972Z,46.20
2019-03-06T12:31:49.865Z,47.03
2019-03-06T12:34:19.001Z,46.73
2019-03-06T12:36:47.889Z,46.42
2019-03-06T12:39:16.755Z,45.72
2019-03-06T12:41:45.609Z,45.24
2019-03-06T12:44:14.675Z,44.08
2019-03-06T12:46:46.051Z,41.30
2019-03-06T12:49:16.765Z,41.45
2019-03-06T12:51:54.058Z,42.24
2019-03-06T12:54:16.535Z,41.10
2019-03-06T12:56:45.470Z,39.06
2019-03-06T12:59:14.373Z,40.02
2019-03-06T13:01:43.589Z,40.48
2019-03-06T13:04:12.434Z,42.10
2019-03-06T13:06:41.371Z,42.86
2019-03-06T13:09:17.689Z,43.46
2019-03-06T13:11:46.575Z,43.42
2019-03-06T13:14:15.727Z,43.92
2019-03-06T13:16:44.858Z,43.50
2019-03-06T13:19:13.793Z,42.77
2019-03-06T13:21:42.660Z,42.14
2019-03-06T13:24:11.932Z,40.28
2019-03-06T13:26:40.834Z,38.23
2019-03-06T13:29:09.785Z,38.92
2019-03-06T13:31:38.668Z,39.75
2019-03-06T13:34:19.424Z,40.48
2019-03-06T13:36:48.225Z,40.87
2019-03-06T13:39:17.258Z,41.92
2019-03-06T13:41:46.143Z,42.19
2019-03-06T13:44:14.917Z,41.48
2019-03-06T13:46:44.161Z,41.57
2019-03-06T13:49:13.126Z,42.36
2019-03-06T13:51:42.287Z,41.92
2019-03-06T13:54:11.069Z,41.17
2019-03-06T13:56:39.961Z,40.01
2019-03-06T13:59:09.064Z,40.39
2019-03-06T14:01:37.912Z,39.46
2019-03-06T14:04:06.847Z,39.69
2019-03-06T14:06:35.714Z,39.84
2019-03-06T14:09:06.438Z,41.37
2019-03-06T14:11:36.287Z,41.31
2019-03-06T14:14:05.977Z,42.30
2019-03-06T14:16:34.864Z,42.51
2019-03-06T14:19:03.787Z,41.73
2019-03-06T14:21:32.735Z,41.48
2019-03-06T14:24:01.660Z,42.70
2019-03-06T14:26:30.545Z,42.50
2019-03-06T14:28:59.424Z,42.71
2019-03-06T14:31:28.406Z,42.63
2019-03-06T14:33:57.335Z,43.08
2019-03-06T14:36:26.598Z,43.85
2019-03-06T14:38:55.519Z,43.75
2019-03-06T14:41:24.684Z,44.13
2019-03-06T14:43:53.616Z,43.91
2019-03-06T14:46:22.560Z,43.58
2019-03-06T14:48:51.519Z,44.14
2019-03-06T14:51:20.403Z,44.52
2019-03-06T14:53:49.288Z,44.19
2019-03-06T14:56:18.138Z,44.29
2019-03-06T14:58:47.100Z,44.84
2019-03-06T15:01:15.882Z,45.26
2019-03-06T15:03:44.682Z,45.47
2019-03-06T15:06:13.465Z,46.12
2019-03-06T15:08:42.707Z,47.47
2019-03-06T15:11:11.550Z,47.56
2019-03-06T15:13:40.806Z,48.98
2019-03-06T15:16:09.689Z,48.61
2019-03-06T15:18:38.533Z,47.69
2019-03-06T15:21:07.486Z,48.04
2019-03-06T15:23:36.624Z,47.61
2019-03-06T15:26:05.621Z,47.91
2019-03-06T15:28:34.556Z,47.96
2019-03-06T15:31:03.868Z,48.30
2019-03-06T15:33:32.798Z,48.67
2019-03-06T15:36:01.660Z,48.28
2019-03-06T15:38:30.598Z,49.33
2019-03-06T15:40:59.527Z,49.62
2019-03-06T15:43:28.419Z,50.05
2019-03-06T15:45:57.280Z,49.96
2019-03-06T15:48:26.178Z,50.19
2019-03-06T15:50:55.085Z,51.33
2019-03-06T15:53:24.844Z,51.44
2019-03-06T15:55:55.453Z,51.14
2019-03-06T15:58:24.252Z,50.74
2019-03-06T16:00:53.176Z,49.53
2019-03-06T16:03:21.981Z,50.15
2019-03-06T16:05:50.921Z,49.84
2019-03-06T16:08:19.788Z,50.18
2019-03-06T16:10:48.892Z,49.88
2019-03-06T16:13:17.791Z,50.33
2019-03-06T16:15:46.712Z,50.04
2019-03-06T16:18:15.559Z,50.21
2019-03-06T16:20:44.530Z,50.83
2019-03-06T16:23:14.718Z,51.10
2019-03-06T16:25:43.775Z,50.87
2019-03-06T16:28:12.982Z,50.91
2019-03-06T16:30:42.405Z,51.00
2019-03-06T16:33:11.648Z,52.01
2019-03-06T16:35:40.552Z,52.44
2019-03-06T16:38:09.528Z,52.42
2019-03-06T16:40:38.709Z,52.23
2019-03-06T16:43:07.998Z,52.18
2019-03-06T16:45:39.582Z,51.10
2019-03-06T16:48:08.620Z,51.10
2019-03-06T16:50:38.250Z,51.13
2019-03-06T16:53:07.570Z,51.32
2019-03-06T16:55:36.518Z,53.71
2019-03-06T16:58:05.569Z,54.08
2019-03-06T17:00:34.527Z,54.83
2019-03-06T17:03:03.862Z,54.66
2019-03-06T17:05:33.217Z,58.46
2019-03-06T17:08:02.449Z,58.47
2019-03-06T17:10:31.431Z,58.98
2019-03-06T17:13:00.433Z,61.89
2019-03-06T17:15:29.905Z,60.69
2019-03-06T17:17:58.822Z,61.94
2019-03-06T17:20:28.460Z,65.68
2019-03-06T17:22:57.526Z,65.61
2019-03-06T17:25:28.370Z,65.62
2019-03-06T17:27:57.528Z,67.27
2019-03-06T17:30:27.223Z,65.66
2019-03-06T17:33:02.299Z,66.83
2019-03-06T17:35:31.982Z,64.99
2019-03-06T17:38:02.286Z,64.89
2019-03-06T17:40:31.703Z,64.74
2019-03-06T17:43:00.948Z,64.33
2019-03-06T17:45:30.533Z,65.14
2019-03-06T17:47:59.727Z,65.79
2019-03-06T17:50:28.630Z,64.90
2019-03-06T17:52:58.182Z,66.14
2019-03-06T17:55:27.161Z,65.24
2019-03-06T17:57:56.769Z,68.63
2019-03-06T18:00:43.713Z,67.77
2019-03-06T18:03:15.345Z,70.50
2019-03-06T18:05:44.275Z,69.42
2019-03-06T18:08:13.528Z,69.07
2019-03-06T18:10:42.379Z,68.40
2019-03-06T18:13:11.715Z,68.97
2019-03-06T18:15:41.195Z,68.17
2019-03-06T18:18:10.403Z,69.34
2019-03-06T18:20:39.251Z,68.52
2019-03-06T18:23:08.119Z,68.43
2019-03-06T18:25:37.281Z,68.93
2019-03-06T18:28:06.541Z,70.42
2019-03-06T18:30:35.422Z,63.86
2019-03-06T18:33:05.289Z,66.43
2019-03-06T18:35:34.423Z,67.82
2019-03-06T18:38:03.299Z,66.49
2019-03-06T18:40:32.232Z,66.07
2019-03-06T18:43:01.510Z,66.35
2019-03-06T18:45:30.355Z,64.01
2019-03-06T18:47:59.220Z,66.16
2019-03-06T18:50:28.080Z,65.61
2019-03-06T18:52:59.161Z,64.66
2019-03-06T18:55:28.176Z,64.45
2019-03-06T18:57:57.285Z,64.23
2019-03-06T19:00:26.286Z,64.78
2019-03-06T19:02:55.211Z,63.82
2019-03-06T19:05:24.143Z,62.44
2019-03-06T19:07:53.504Z,62.06
2019-03-06T19:10:22.772Z,65.46
2019-03-06T19:12:52.056Z,64.39
2019-03-06T19:15:21.160Z,65.13
2019-03-06T19:17:50.137Z,65.89
2019-03-06T19:20:19.732Z,67.03
2019-03-06T19:22:49.002Z,64.78
2019-03-06T19:25:18.600Z,64.01
2019-03-06T19:27:47.866Z,64.10
2019-03-06T19:30:19.462Z,62.92
2019-03-06T19:32:49.078Z,65.81
2019-03-06T19:35:18.843Z,65.29
2019-03-06T19:37:47.754Z,63.95
2019-03-06T19:40:17.575Z,65.48
2019-03-06T19:42:46.882Z,66.09
2019-03-06T19:45:17.820Z,64.33
2019-03-06T19:47:47.320Z,65.97
2019-03-06T19:50:19.187Z,64.77
2019-03-06T19:52:48.232Z,66.21
2019-03-06T19:55:18.994Z,67.17
2019-03-06T19:58:01.872Z,66.53
2019-03-06T20:00:31.610Z,68.69
2019-03-06T20:03:01.238Z,67.60
2019-03-06T20:05:34.536Z,66.19
2019-03-06T20:08:03.795Z,67.58
2019-03-06T20:10:33.079Z,69.28
2019-03-06T20:13:02.424Z,65.88
2019-03-06T20:15:31.556Z,64.21
2019-03-06T20:18:01.264Z,63.57
2019-03-06T20:20:30.472Z,62.61
2019-03-06T20:22:59.615Z,63.47
2019-03-06T20:25:28.882Z,62.11
2019-03-06T20:27:58.460Z,63.37
2019-03-06T20:30:28.092Z,63.07
2019-03-06T20:32:58.205Z,62.30
2019-03-06T20:35:28.228Z,62.55
2019-03-06T20:37:58.789Z,61.80
2019-03-06T20:40:28.130Z,63.59
2019-03-06T20:42:58.163Z,61.25
2019-03-06T20:45:28.318Z,62.17
2019-03-06T20:47:57.493Z,63.03
2019-03-06T20:50:26.646Z,62.88
2019-03-06T20:52:55.917Z,65.73
2019-03-06T20:55:25.093Z,63.84
2019-03-06T20:57:54.221Z,65.81
2019-03-06T21:00:24.633Z,65.19
2019-03-06T21:02:55.366Z,64.79
2019-03-06T21:05:25.366Z,65.54
2019-03-06T21:07:55.273Z,66.84
2019-03-06T21:10:25.080Z,66.95
2019-03-06T21:12:55.094Z,67.59
2019-03-06T21:15:24.826Z,67.23
2019-03-06T21:17:53.979Z,68.22
2019-03-06T21:20:23.402Z,67.76
2019-03-06T21:22:53.644Z,68.10
2019-03-06T21:25:23.561Z,68.78
2019-03-06T21:27:53.881Z,70.17
2019-03-06T21:30:28.964Z,71.60
2019-03-06T21:32:59.049Z,71.70
2019-03-06T21:35:28.697Z,73.40
2019-03-06T21:37:58.831Z,73.14
2019-03-06T21:40:28.664Z,72.86
2019-03-06T21:43:00.307Z,73.43
2019-03-06T21:45:30.176Z,74.82
2019-03-06T21:48:00.401Z,75.52
2019-03-06T21:50:29.509Z,76.10
2019-03-06T21:52:59.700Z,75.29
2019-03-06T21:55:30.020Z,75.05
2019-03-06T21:57:59.259Z,76.36
2019-03-06T22:00:28.935Z,75.27
2019-03-06T22:02:58.159Z,76.18
2019-03-06T22:05:27.770Z,76.79
2019-03-06T22:07:57.492Z,77.29
2019-03-06T22:10:26.842Z,77.04
2019-03-06T22:12:56.460Z,77.27
2019-03-06T22:15:25.634Z,78.04
2019-03-06T22:17:54.760Z,78.14
2019-03-06T22:20:25.712Z,77.84
2019-03-06T22:22:55.810Z,78.20
2019-03-06T22:25:24.923Z,78.59
2019-03-06T22:27:53.746Z,79.05
2019-03-06T22:30:23.226Z,79.67
2019-03-06T22:32:52.557Z,78.86
2019-03-06T22:35:21.969Z,79.75
2019-03-06T22:37:51.289Z,79.02
2019-03-06T22:40:20.366Z,78.61
2019-03-06T22:42:50.121Z,79.39
2019-03-06T22:45:19.518Z,79.54
2019-03-06T22:47:48.499Z,79.78
2019-03-06T22:50:17.934Z,79.74
2019-03-06T22:52:46.720Z,79.58
2019-03-06T22:55:16.808Z,80.21
2019-03-06T22:57:47.054Z,80.56
2019-03-06T23:00:43.339Z,80.20
2019-03-06T23:03:13.224Z,80.91
2019-03-06T23:05:42.927Z,81.74
2019-03-06T23:08:13.676Z,81.06
2019-03-06T23:10:43.593Z,80.55
2019-03-06T23:13:13.411Z,81.59
2019-03-06T23:15:42.844Z,79.42
2019-03-06T23:18:12.247Z,79.07
2019-03-06T23:20:42.125Z,79.45
2019-03-06T23:23:11.839Z,78.74
2019-03-06T23:25:41.017Z,79.70
2019-03-06T23:28:10.220Z,78.01
2019-03-06T23:30:39.842Z,77.20
2019-03-06T23:33:09.455Z,77.97
2019-03-06T23:35:39.038Z,78.61
2019-03-06T23:38:07.890Z,77.91
2019-03-06T23:40:37.421Z,77.36
2019-03-06T23:43:06.890Z,77.23
2019-03-06T23:45:36.145Z,77.73
2019-03-06T23:48:04.929Z,77.07
2019-03-06T23:50:34.199Z,77.33
2019-03-06T23:53:07.500Z,77.16
2019-03-06T23:55:35.938Z,76.55
2019-03-06T23:58:05.531Z,76.87
